sensor_id;sensor_type;location;lat;lon;timestamp;pressure;altitude;pressure_sealevel;temperature
64394;BMP280;50712;49.506;10.400;2023-12-20T00:00:10;97943.47;;;7.96
64394;BMP280;50712;49.506;10.400;2023-12-20T00:00:41;97942.69;;;7.96
64394;BMP280;50712;49.506;10.400;2023-12-20T00:01:11;97952.78;;;7.95
64394;BMP280;50712;49.506;10.400;2023-12-20T00:01:42;97948.88;;;7.96
64394;BMP280;50712;49.506;10.400;2023-12-20T00:02:12;97943.47;;;7.96
64394;BMP280;50712;49.506;10.400;2023-12-20T00:02:42;97947.34;;;7.95
64394;BMP280;50712;49.506;10.400;2023-12-20T00:03:16;97939.22;;;7.95
64394;BMP280;50712;49.506;10.400;2023-12-20T00:03:47;97934.56;;;7.96
64394;BMP280;50712;49.506;10.400;2023-12-20T00:04:17;97933.03;;;7.95
64394;BMP280;50712;49.506;10.400;2023-12-20T00:04:47;97939.22;;;7.95
64394;BMP280;50712;49.506;10.400;2023-12-20T00:05:18;97941.91;;;7.95
64394;BMP280;50712;49.506;10.400;2023-12-20T00:05:48;97941.91;;;7.95
64394;BMP280;50712;49.506;10.400;2023-12-20T00:06:18;97941.91;;;7.95
64394;BMP280;50712;49.506;10.400;2023-12-20T00:06:49;97939.22;;;7.95
64394;BMP280;50712;49.506;10.400;2023-12-20T00:07:19;97936.50;;;7.95
64394;BMP280;50712;49.506;10.400;2023-12-20T00:07:50;97944.22;;;7.97
64394;BMP280;50712;49.506;10.400;2023-12-20T00:08:20;97925.66;;;7.95
64394;BMP280;50712;49.506;10.400;2023-12-20T00:08:53;97943.91;;;7.95
64394;BMP280;50712;49.506;10.400;2023-12-20T00:09:23;97924.47;;;7.96
64394;BMP280;50712;49.506;10.400;2023-12-20T00:09:54;97938.81;;;7.97
64394;BMP280;50712;49.506;10.400;2023-12-20T00:10:24;97935.31;;;7.96
64394;BMP280;50712;49.506;10.400;2023-12-20T00:10:54;97936.09;;;7.97
64394;BMP280;50712;49.506;10.400;2023-12-20T00:11:25;97928.38;;;7.95
64394;BMP280;50712;49.506;10.400;2023-12-20T00:11:55;97935.31;;;7.96
64394;BMP280;50712;49.506;10.400;2023-12-20T00:12:25;97940.75;;;7.96
64394;BMP280;50712;49.506;10.400;2023-12-20T00:12:56;97935.75;;;7.95
64394;BMP280;50712;49.506;10.400;2023-12-20T00:13:26;97934.56;;;7.96
64394;BMP280;50712;49.506;10.400;2023-12-20T00:13:56;97939.22;;;7.95
64394;BMP280;50712;49.506;10.400;2023-12-20T00:14:27;97937.25;;;7.96
64394;BMP280;50712;49.506;10.400;2023-12-20T00:14:57;97931.06;;;7.95
64394;BMP280;50712;49.506;10.400;2023-12-20T00:15:27;97935.75;;;7.95
64394;BMP280;50712;49.506;10.400;2023-12-20T00:15:58;97927.63;;;7.95
64394;BMP280;50712;49.506;10.400;2023-12-20T00:16:28;97932.28;;;7.94
64394;BMP280;50712;49.506;10.400;2023-12-20T00:16:58;97928.38;;;7.95
64394;BMP280;50712;49.506;10.400;2023-12-20T00:17:29;97937.69;;;7.94
64394;BMP280;50712;49.506;10.400;2023-12-20T00:17:59;97933.78;;;7.95
64394;BMP280;50712;49.506;10.400;2023-12-20T00:18:30;97928.06;;;7.93
64394;BMP280;50712;49.506;10.400;2023-12-20T00:19:01;97932.28;;;7.94
64394;BMP280;50712;49.506;10.400;2023-12-20T00:19:31;97926.09;;;7.94
64394;BMP280;50712;49.506;10.400;2023-12-20T00:20:01;97932.28;;;7.94
64394;BMP280;50712;49.506;10.400;2023-12-20T00:20:32;97932.28;;;7.94
64394;BMP280;50712;49.506;10.400;2023-12-20T00:21:03;97934.22;;;7.94
64394;BMP280;50712;49.506;10.400;2023-12-20T00:21:33;97941.63;;;7.93
64394;BMP280;50712;49.506;10.400;2023-12-20T00:22:03;97928.06;;;7.93
64394;BMP280;50712;49.506;10.400;2023-12-20T00:22:34;97937.38;;;7.92
64394;BMP280;50712;49.506;10.400;2023-12-20T00:23:04;97939.66;;;7.94
64394;BMP280;50712;49.506;10.400;2023-12-20T00:23:35;97934.22;;;7.94
64394;BMP280;50712;49.506;10.400;2023-12-20T00:24:05;97921.88;;;7.93
64394;BMP280;50712;49.506;10.400;2023-12-20T00:24:35;97922.28;;;7.91
64394;BMP280;50712;49.506;10.400;2023-12-20T00:25:06;97930.00;;;7.93
64394;BMP280;50712;49.506;10.400;2023-12-20T00:25:37;97931.19;;;7.92
64394;BMP280;50712;49.506;10.400;2023-12-20T00:26:07;97929.22;;;7.92
64394;BMP280;50712;49.506;10.400;2023-12-20T00:26:37;97926.94;;;7.91
64394;BMP280;50712;49.506;10.400;2023-12-20T00:27:08;97919.56;;;7.91
64394;BMP280;50712;49.506;10.400;2023-12-20T00:27:38;97929.66;;;7.91
64394;BMP280;50712;49.506;10.400;2023-12-20T00:28:08;97934.31;;;7.90
64394;BMP280;50712;49.506;10.400;2023-12-20T00:28:39;97928.91;;;7.90
64394;BMP280;50712;49.506;10.400;2023-12-20T00:29:09;97928.91;;;7.90
64394;BMP280;50712;49.506;10.400;2023-12-20T00:29:39;97929.31;;;7.89
64394;BMP280;50712;49.506;10.400;2023-12-20T00:30:10;97931.63;;;7.90
64394;BMP280;50712;49.506;10.400;2023-12-20T00:30:40;97926.94;;;7.91
64394;BMP280;50712;49.506;10.400;2023-12-20T00:31:11;97931.25;;;7.88
64394;BMP280;50712;49.506;10.400;2023-12-20T00:31:41;97929.31;;;7.89
64394;BMP280;50712;49.506;10.400;2023-12-20T00:32:11;97925.41;;;7.90
64394;BMP280;50712;49.506;10.400;2023-12-20T00:32:42;97924.66;;;7.89
64394;BMP280;50712;49.506;10.400;2023-12-20T00:33:16;97937.44;;;7.89
64394;BMP280;50712;49.506;10.400;2023-12-20T00:33:47;97929.31;;;7.89
64394;BMP280;50712;49.506;10.400;2023-12-20T00:34:17;97930.47;;;7.88
64394;BMP280;50712;49.506;10.400;2023-12-20T00:34:48;97931.25;;;7.88
64394;BMP280;50712;49.506;10.400;2023-12-20T00:35:18;97930.47;;;7.88
64394;BMP280;50712;49.506;10.400;2023-12-20T00:35:48;97935.16;;;7.87
64394;BMP280;50712;49.506;10.400;2023-12-20T00:36:19;97925.50;;;7.86
64394;BMP280;50712;49.506;10.400;2023-12-20T00:36:49;97929.75;;;7.87
64394;BMP280;50712;49.506;10.400;2023-12-20T00:37:20;97929.75;;;7.87
64394;BMP280;50712;49.506;10.400;2023-12-20T00:37:50;97932.47;;;7.87
64394;BMP280;50712;49.506;10.400;2023-12-20T00:38:20;97922.78;;;7.86
64394;BMP280;50712;49.506;10.400;2023-12-20T00:38:51;97922.78;;;7.86
64394;BMP280;50712;49.506;10.400;2023-12-20T00:39:21;97927.44;;;7.86
64394;BMP280;50712;49.506;10.400;2023-12-20T00:39:52;97921.25;;;7.85
64394;BMP280;50712;49.506;10.400;2023-12-20T00:40:22;97928.22;;;7.86
64394;BMP280;50712;49.506;10.400;2023-12-20T00:40:53;97917.34;;;7.86
64394;BMP280;50712;49.506;10.400;2023-12-20T00:41:23;97923.97;;;7.85
64394;BMP280;50712;49.506;10.400;2023-12-20T00:41:53;97923.97;;;7.85
64394;BMP280;50712;49.506;10.400;2023-12-20T00:42:24;97923.97;;;7.85
64394;BMP280;50712;49.506;10.400;2023-12-20T00:42:54;97916.28;;;7.84
64394;BMP280;50712;49.506;10.400;2023-12-20T00:43:24;97919.00;;;7.84
64394;BMP280;50712;49.506;10.400;2023-12-20T00:43:55;97919.00;;;7.84
64394;BMP280;50712;49.506;10.400;2023-12-20T00:44:25;97918.22;;;7.83
64394;BMP280;50712;49.506;10.400;2023-12-20T00:44:56;97922.88;;;7.83
64394;BMP280;50712;49.506;10.400;2023-12-20T00:45:26;97918.22;;;7.83
64394;BMP280;50712;49.506;10.400;2023-12-20T00:45:57;97929.09;;;7.83
64394;BMP280;50712;49.506;10.400;2023-12-20T00:46:27;97912.81;;;7.83
64394;BMP280;50712;49.506;10.400;2023-12-20T00:46:59;97920.94;;;7.83
64394;BMP280;50712;49.506;10.400;2023-12-20T00:47:29;97910.09;;;7.83
64394;BMP280;50712;49.506;10.400;2023-12-20T00:47:59;97907.78;;;7.82
64394;BMP280;50712;49.506;10.400;2023-12-20T00:48:29;97925.59;;;7.83
64394;BMP280;50712;49.506;10.400;2023-12-20T00:49:02;97913.97;;;7.82
64394;BMP280;50712;49.506;10.400;2023-12-20T00:49:33;97913.97;;;7.82
64394;BMP280;50712;49.506;10.400;2023-12-20T00:50:03;97917.88;;;7.81
64394;BMP280;50712;49.506;10.400;2023-12-20T00:50:34;97909.75;;;7.81
64394;BMP280;50712;49.506;10.400;2023-12-20T00:51:04;97909.00;;;7.81
64394;BMP280;50712;49.506;10.400;2023-12-20T00:51:35;97916.38;;;7.80
64394;BMP280;50712;49.506;10.400;2023-12-20T00:52:05;97917.13;;;7.81
64394;BMP280;50712;49.506;10.400;2023-12-20T00:52:36;97924.50;;;7.80
64394;BMP280;50712;49.506;10.400;2023-12-20T00:53:06;97921.03;;;7.80
64394;BMP280;50712;49.506;10.400;2023-12-20T00:53:36;97915.59;;;7.80
64394;BMP280;50712;49.506;10.400;2023-12-20T00:54:07;97915.59;;;7.80
64394;BMP280;50712;49.506;10.400;2023-12-20T00:54:37;97912.88;;;7.80
64394;BMP280;50712;49.506;10.400;2023-12-20T00:55:08;97915.59;;;7.80
64394;BMP280;50712;49.506;10.400;2023-12-20T00:55:38;97907.88;;;7.78
64394;BMP280;50712;49.506;10.400;2023-12-20T00:56:08;97914.84;;;7.79
64394;BMP280;50712;49.506;10.400;2023-12-20T00:56:39;97905.16;;;7.78
64394;BMP280;50712;49.506;10.400;2023-12-20T00:57:09;97905.16;;;7.78
64394;BMP280;50712;49.506;10.400;2023-12-20T00:57:40;97907.88;;;7.78
64394;BMP280;50712;49.506;10.400;2023-12-20T00:58:10;97896.28;;;7.78
64394;BMP280;50712;49.506;10.400;2023-12-20T00:58:41;97899.00;;;7.78
64394;BMP280;50712;49.506;10.400;2023-12-20T00:59:11;97898.22;;;7.77
64394;BMP280;50712;49.506;10.400;2023-12-20T00:59:41;97902.44;;;7.78
64394;BMP280;50712;49.506;10.400;2023-12-20T01:00:12;97900.94;;;7.77
64394;BMP280;50712;49.506;10.400;2023-12-20T01:00:43;97898.22;;;7.77
64394;BMP280;50712;49.506;10.400;2023-12-20T01:01:14;97897.03;;;7.78
64394;BMP280;50712;49.506;10.400;2023-12-20T01:01:45;97901.72;;;7.78
64394;BMP280;50712;49.506;10.400;2023-12-20T01:02:15;97899.72;;;7.78
64394;BMP280;50712;49.506;10.400;2023-12-20T01:02:46;97899.00;;;7.78
64394;BMP280;50712;49.506;10.400;2023-12-20T01:03:19;97892.81;;;7.77
64394;BMP280;50712;49.506;10.400;2023-12-20T01:03:49;97898.22;;;7.77
64394;BMP280;50712;49.506;10.400;2023-12-20T01:04:21;97897.47;;;7.77
64394;BMP280;50712;49.506;10.400;2023-12-20T01:04:51;97899.41;;;7.76
64394;BMP280;50712;49.506;10.400;2023-12-20T01:05:22;97893.56;;;7.78
64394;BMP280;50712;49.506;10.400;2023-12-20T01:05:55;97893.97;;;7.76
64394;BMP280;50712;49.506;10.400;2023-12-20T01:06:25;97900.94;;;7.77
64394;BMP280;50712;49.506;10.400;2023-12-20T01:06:56;97892.81;;;7.77
64394;BMP280;50712;49.506;10.400;2023-12-20T01:07:26;97900.94;;;7.77
64394;BMP280;50712;49.506;10.400;2023-12-20T01:07:56;97888.16;;;7.78
64394;BMP280;50712;49.506;10.400;2023-12-20T01:08:27;97893.22;;;7.76
64394;BMP280;50712;49.506;10.400;2023-12-20T01:08:57;97903.66;;;7.77
64394;BMP280;50712;49.506;10.400;2023-12-20T01:09:27;97898.63;;;7.76
64394;BMP280;50712;49.506;10.400;2023-12-20T01:09:58;97897.47;;;7.77
64394;BMP280;50712;49.506;10.400;2023-12-20T01:10:28;97902.88;;;7.77
64394;BMP280;50712;49.506;10.400;2023-12-20T01:10:59;97895.16;;;7.75
64394;BMP280;50712;49.506;10.400;2023-12-20T01:11:29;97897.13;;;7.75
64394;BMP280;50712;49.506;10.400;2023-12-20T01:12:00;97895.16;;;7.75
64394;BMP280;50712;49.506;10.400;2023-12-20T01:12:30;97886.28;;;7.75
64394;BMP280;50712;49.506;10.400;2023-12-20T01:13:00;97893.22;;;7.76
64394;BMP280;50712;49.506;10.400;2023-12-20T01:13:31;97887.03;;;7.75
64394;BMP280;50712;49.506;10.400;2023-12-20T01:14:01;97894.41;;;7.75
64394;BMP280;50712;49.506;10.400;2023-12-20T01:14:31;97890.50;;;7.76
64394;BMP280;50712;49.506;10.400;2023-12-20T01:15:02;97897.47;;;7.77
64394;BMP280;50712;49.506;10.400;2023-12-20T01:15:32;97892.03;;;7.77
64394;BMP280;50712;49.506;10.400;2023-12-20T01:16:03;97887.78;;;7.76
64394;BMP280;50712;49.506;10.400;2023-12-20T01:16:34;97891.28;;;7.76
64394;BMP280;50712;49.506;10.400;2023-12-20T01:17:04;97891.28;;;7.76
64394;BMP280;50712;49.506;10.400;2023-12-20T01:17:35;97885.06;;;7.76
64394;BMP280;50712;49.506;10.400;2023-12-20T01:18:05;97890.50;;;7.76
64394;BMP280;50712;49.506;10.400;2023-12-20T01:18:36;97888.56;;;7.76
64394;BMP280;50712;49.506;10.400;2023-12-20T01:19:06;97891.28;;;7.76
64394;BMP280;50712;49.506;10.400;2023-12-20T01:19:36;97885.06;;;7.76
64394;BMP280;50712;49.506;10.400;2023-12-20T01:20:07;97879.66;;;7.76
64394;BMP280;50712;49.506;10.400;2023-12-20T01:20:38;97882.38;;;7.76
64394;BMP280;50712;49.506;10.400;2023-12-20T01:21:08;97890.50;;;7.76
64394;BMP280;50712;49.506;10.400;2023-12-20T01:21:39;97887.03;;;7.75
64394;BMP280;50712;49.506;10.400;2023-12-20T01:22:10;97893.22;;;7.76
64394;BMP280;50712;49.506;10.400;2023-12-20T01:22:40;97878.47;;;7.77
64394;BMP280;50712;49.506;10.400;2023-12-20T01:23:12;97883.13;;;7.76
64394;BMP280;50712;49.506;10.400;2023-12-20T01:23:43;97884.31;;;7.75
64394;BMP280;50712;49.506;10.400;2023-12-20T01:24:13;97878.88;;;7.75
64394;BMP280;50712;49.506;10.400;2023-12-20T01:24:43;97887.03;;;7.75
64394;BMP280;50712;49.506;10.400;2023-12-20T01:25:14;97878.16;;;7.75
64394;BMP280;50712;49.506;10.400;2023-12-20T01:25:44;97888.22;;;7.74
64394;BMP280;50712;49.506;10.400;2023-12-20T01:26:15;97890.94;;;7.74
64394;BMP280;50712;49.506;10.400;2023-12-20T01:26:45;97884.75;;;7.74
64394;BMP280;50712;49.506;10.400;2023-12-20T01:27:15;97880.09;;;7.74
64394;BMP280;50712;49.506;10.400;2023-12-20T01:27:46;97880.09;;;7.74
64394;BMP280;50712;49.506;10.400;2023-12-20T01:28:16;97876.59;;;7.74
64394;BMP280;50712;49.506;10.400;2023-12-20T01:28:55;97884.75;;;7.74
64394;BMP280;50712;49.506;10.400;2023-12-20T01:29:26;97878.59;;;7.73
64394;BMP280;50712;49.506;10.400;2023-12-20T01:29:56;97881.28;;;7.73
64394;BMP280;50712;49.506;10.400;2023-12-20T01:30:27;97892.16;;;7.73
64394;BMP280;50712;49.506;10.400;2023-12-20T01:30:57;97879.00;;;7.72
64394;BMP280;50712;49.506;10.400;2023-12-20T01:31:28;97883.25;;;7.73
64394;BMP280;50712;49.506;10.400;2023-12-20T01:31:58;97880.53;;;7.73
64394;BMP280;50712;49.506;10.400;2023-12-20T01:32:28;97887.13;;;7.72
64394;BMP280;50712;49.506;10.400;2023-12-20T01:33:00;97876.28;;;7.72
64394;BMP280;50712;49.506;10.400;2023-12-20T01:33:31;97880.97;;;7.71
64394;BMP280;50712;49.506;10.400;2023-12-20T01:34:01;97878.25;;;7.71
64394;BMP280;50712;49.506;10.400;2023-12-20T01:34:32;97882.91;;;7.71
64394;BMP280;50712;49.506;10.400;2023-12-20T01:35:02;97886.38;;;7.71
64394;BMP280;50712;49.506;10.400;2023-12-20T01:35:33;97891.03;;;7.71
64394;BMP280;50712;49.506;10.400;2023-12-20T01:36:03;97884.84;;;7.70
64394;BMP280;50712;49.506;10.400;2023-12-20T01:36:34;97882.13;;;7.70
64394;BMP280;50712;49.506;10.400;2023-12-20T01:37:04;97882.91;;;7.71
64394;BMP280;50712;49.506;10.400;2023-12-20T01:37:35;97884.84;;;7.70
64394;BMP280;50712;49.506;10.400;2023-12-20T01:38:05;97883.31;;;7.69
64394;BMP280;50712;49.506;10.400;2023-12-20T01:38:36;97883.31;;;7.69
64394;BMP280;50712;49.506;10.400;2023-12-20T01:39:06;97888.75;;;7.69
64394;BMP280;50712;49.506;10.400;2023-12-20T01:39:36;97876.38;;;7.68
64394;BMP280;50712;49.506;10.400;2023-12-20T01:40:07;97882.53;;;7.68
64394;BMP280;50712;49.506;10.400;2023-12-20T01:40:38;97881.81;;;7.68
64394;BMP280;50712;49.506;10.400;2023-12-20T01:41:08;97884.53;;;7.68
64394;BMP280;50712;49.506;10.400;2023-12-20T01:41:38;97884.53;;;7.68
64394;BMP280;50712;49.506;10.400;2023-12-20T01:42:09;97883.75;;;7.68
64394;BMP280;50712;49.506;10.400;2023-12-20T01:42:39;97889.94;;;7.68
64394;BMP280;50712;49.506;10.400;2023-12-20T01:43:09;97884.53;;;7.68
64394;BMP280;50712;49.506;10.400;2023-12-20T01:43:41;97885.69;;;7.67
64394;BMP280;50712;49.506;10.400;2023-12-20T01:44:12;97878.72;;;7.66
64394;BMP280;50712;49.506;10.400;2023-12-20T01:44:42;97879.50;;;7.66
64394;BMP280;50712;49.506;10.400;2023-12-20T01:45:12;97884.16;;;7.66
64394;BMP280;50712;49.506;10.400;2023-12-20T01:45:43;97881.44;;;7.66
64394;BMP280;50712;49.506;10.400;2023-12-20T01:46:13;97878.72;;;7.66
64394;BMP280;50712;49.506;10.400;2023-12-20T01:46:45;97888.81;;;7.65
64394;BMP280;50712;49.506;10.400;2023-12-20T01:47:16;97885.38;;;7.65
64394;BMP280;50712;49.506;10.400;2023-12-20T01:47:46;97878.41;;;7.64
64394;BMP280;50712;49.506;10.400;2023-12-20T01:48:17;97881.88;;;7.64
64394;BMP280;50712;49.506;10.400;2023-12-20T01:48:49;97877.63;;;7.63
64394;BMP280;50712;49.506;10.400;2023-12-20T01:49:20;97872.97;;;7.64
64394;BMP280;50712;49.506;10.400;2023-12-20T01:49:51;97883.06;;;7.63
64394;BMP280;50712;49.506;10.400;2023-12-20T01:50:22;97871.44;;;7.63
64394;BMP280;50712;49.506;10.400;2023-12-20T01:50:53;97870.69;;;7.62
64394;BMP280;50712;49.506;10.400;2023-12-20T01:51:24;97878.81;;;7.62
64394;BMP280;50712;49.506;10.400;2023-12-20T01:51:57;97882.75;;;7.61
64394;BMP280;50712;49.506;10.400;2023-12-20T01:52:27;97875.34;;;7.62
64394;BMP280;50712;49.506;10.400;2023-12-20T01:52:58;97873.84;;;7.61
64394;BMP280;50712;49.506;10.400;2023-12-20T01:53:31;97871.91;;;7.61
64394;BMP280;50712;49.506;10.400;2023-12-20T01:54:02;97878.50;;;7.60
64394;BMP280;50712;49.506;10.400;2023-12-20T01:54:34;97876.56;;;7.61
64394;BMP280;50712;49.506;10.400;2023-12-20T01:55:06;97879.69;;;7.59
64394;BMP280;50712;49.506;10.400;2023-12-20T01:55:43;97871.56;;;7.59
64394;BMP280;50712;49.506;10.400;2023-12-20T01:56:14;97878.91;;;7.59
64394;BMP280;50712;49.506;10.400;2023-12-20T01:56:46;97887.47;;;7.57
64394;BMP280;50712;49.506;10.400;2023-12-20T01:57:16;97879.34;;;7.57
64394;BMP280;50712;49.506;10.400;2023-12-20T01:57:46;97875.88;;;7.57
64394;BMP280;50712;49.506;10.400;2023-12-20T01:58:17;97879.34;;;7.57
64394;BMP280;50712;49.506;10.400;2023-12-20T01:58:49;97887.47;;;7.57
64394;BMP280;50712;49.506;10.400;2023-12-20T01:59:19;97879.75;;;7.56
64394;BMP280;50712;49.506;10.400;2023-12-20T01:59:51;97882.47;;;7.56
64394;BMP280;50712;49.506;10.400;2023-12-20T02:00:21;97884.44;;;7.55
64394;BMP280;50712;49.506;10.400;2023-12-20T02:00:56;97885.19;;;7.56
64394;BMP280;50712;49.506;10.400;2023-12-20T02:01:27;97877.47;;;7.54
64394;BMP280;50712;49.506;10.400;2023-12-20T02:01:58;97883.66;;;7.55
64394;BMP280;50712;49.506;10.400;2023-12-20T02:02:28;97871.28;;;7.54
64394;BMP280;50712;49.506;10.400;2023-12-20T02:03:00;97891.03;;;7.54
64394;BMP280;50712;49.506;10.400;2023-12-20T02:03:33;97878.66;;;7.53
64394;BMP280;50712;49.506;10.400;2023-12-20T02:04:06;97887.56;;;7.54
64394;BMP280;50712;49.506;10.400;2023-12-20T02:04:37;97879.84;;;7.52
64394;BMP280;50712;49.506;10.400;2023-12-20T02:05:10;97881.03;;;7.51
64394;BMP280;50712;49.506;10.400;2023-12-20T02:05:42;97883.75;;;7.51
64394;BMP280;50712;49.506;10.400;2023-12-20T02:06:12;97873.66;;;7.52
64394;BMP280;50712;49.506;10.400;2023-12-20T02:06:43;97875.63;;;7.51
64394;BMP280;50712;49.506;10.400;2023-12-20T02:07:16;97882.97;;;7.51
64394;BMP280;50712;49.506;10.400;2023-12-20T02:07:48;97877.25;;;7.49
64394;BMP280;50712;49.506;10.400;2023-12-20T02:08:18;97871.84;;;7.49
64394;BMP280;50712;49.506;10.400;2023-12-20T02:08:49;97872.56;;;7.49
64394;BMP280;50712;49.506;10.400;2023-12-20T02:09:20;97881.91;;;7.48
64394;BMP280;50712;49.506;10.400;2023-12-20T02:09:50;97874.94;;;7.47
64394;BMP280;50712;49.506;10.400;2023-12-20T02:10:21;97877.66;;;7.47
64394;BMP280;50712;49.506;10.400;2023-12-20T02:10:52;97879.59;;;7.47
64394;BMP280;50712;49.506;10.400;2023-12-20T02:11:24;97878.09;;;7.46
64394;BMP280;50712;49.506;10.400;2023-12-20T02:11:55;97876.13;;;7.46
64394;BMP280;50712;49.506;10.400;2023-12-20T02:12:26;97881.53;;;7.46
64394;BMP280;50712;49.506;10.400;2023-12-20T02:12:56;97878.09;;;7.46
64394;BMP280;50712;49.506;10.400;2023-12-20T02:13:26;97881.53;;;7.46
64394;BMP280;50712;49.506;10.400;2023-12-20T02:13:57;97880.03;;;7.45
64394;BMP280;50712;49.506;10.400;2023-12-20T02:14:27;97877.31;;;7.45
64394;BMP280;50712;49.506;10.400;2023-12-20T02:14:57;97875.38;;;7.46
64394;BMP280;50712;49.506;10.400;2023-12-20T02:15:28;97871.13;;;7.45
64394;BMP280;50712;49.506;10.400;2023-12-20T02:15:58;97872.31;;;7.44
64394;BMP280;50712;49.506;10.400;2023-12-20T02:16:29;97879.25;;;7.45
64394;BMP280;50712;49.506;10.400;2023-12-20T02:16:59;97873.84;;;7.45
64394;BMP280;50712;49.506;10.400;2023-12-20T02:17:30;97873.84;;;7.45
64394;BMP280;50712;49.506;10.400;2023-12-20T02:18:02;97884.31;;;7.43
64394;BMP280;50712;49.506;10.400;2023-12-20T02:18:33;97876.19;;;7.43
64394;BMP280;50712;49.506;10.400;2023-12-20T02:19:04;97878.91;;;7.43
64394;BMP280;50712;49.506;10.400;2023-12-20T02:19:45;97875.47;;;7.42
64394;BMP280;50712;49.506;10.400;2023-12-20T02:20:15;97880.09;;;7.42
64394;BMP280;50712;49.506;10.400;2023-12-20T02:20:46;97876.63;;;7.41
64394;BMP280;50712;49.506;10.400;2023-12-20T02:21:16;97879.34;;;7.41
64394;BMP280;50712;49.506;10.400;2023-12-20T02:21:46;97875.09;;;7.40
64394;BMP280;50712;49.506;10.400;2023-12-20T02:22:17;97875.88;;;7.41
64394;BMP280;50712;49.506;10.400;2023-12-20T02:22:47;97869.66;;;7.40
64394;BMP280;50712;49.506;10.400;2023-12-20T02:23:17;97875.09;;;7.40
64394;BMP280;50712;49.506;10.400;2023-12-20T02:23:48;97882.47;;;7.40
64394;BMP280;50712;49.506;10.400;2023-12-20T02:24:18;97878.25;;;7.39
64394;BMP280;50712;49.506;10.400;2023-12-20T02:24:48;97876.31;;;7.39
64394;BMP280;50712;49.506;10.400;2023-12-20T02:25:19;97877.50;;;7.38
64394;BMP280;50712;49.506;10.400;2023-12-20T02:25:49;97880.22;;;7.38
64394;BMP280;50712;49.506;10.400;2023-12-20T02:26:19;97880.97;;;7.39
64394;BMP280;50712;49.506;10.400;2023-12-20T02:26:50;97877.50;;;7.38
64394;BMP280;50712;49.506;10.400;2023-12-20T02:27:20;97881.38;;;7.37
64394;BMP280;50712;49.506;10.400;2023-12-20T02:27:53;97874.03;;;7.38
64394;BMP280;50712;49.506;10.400;2023-12-20T02:28:23;97875.97;;;7.37
64394;BMP280;50712;49.506;10.400;2023-12-20T02:28:54;97865.13;;;7.37
64394;BMP280;50712;49.506;10.400;2023-12-20T02:29:25;97878.69;;;7.37
64394;BMP280;50712;49.506;10.400;2023-12-20T02:29:56;97880.63;;;7.37
64394;BMP280;50712;49.506;10.400;2023-12-20T02:30:26;97868.28;;;7.36
64394;BMP280;50712;49.506;10.400;2023-12-20T02:30:56;97869.78;;;7.37
64394;BMP280;50712;49.506;10.400;2023-12-20T02:31:27;97867.06;;;7.37
64394;BMP280;50712;49.506;10.400;2023-12-20T02:31:57;97874.47;;;7.36
64394;BMP280;50712;49.506;10.400;2023-12-20T02:32:27;97872.47;;;7.37
64394;BMP280;50712;49.506;10.400;2023-12-20T02:33:01;97866.31;;;7.36
64394;BMP280;50712;49.506;10.400;2023-12-20T02:33:36;97879.09;;;7.36
64394;BMP280;50712;49.506;10.400;2023-12-20T02:34:06;97874.09;;;7.34
64394;BMP280;50712;49.506;10.400;2023-12-20T02:34:36;97872.56;;;7.33
64394;BMP280;50712;49.506;10.400;2023-12-20T02:35:07;97872.56;;;7.33
64394;BMP280;50712;49.506;10.400;2023-12-20T02:35:37;97865.19;;;7.34
64394;BMP280;50712;49.506;10.400;2023-12-20T02:36:08;97878.75;;;7.34
64394;BMP280;50712;49.506;10.400;2023-12-20T02:36:38;97867.13;;;7.33
64394;BMP280;50712;49.506;10.400;2023-12-20T02:37:09;97872.56;;;7.33
64394;BMP280;50712;49.506;10.400;2023-12-20T02:37:39;97880.69;;;7.33
64394;BMP280;50712;49.506;10.400;2023-12-20T02:38:09;97871.81;;;7.33
64394;BMP280;50712;49.506;10.400;2023-12-20T02:38:40;97871.06;;;7.32
64394;BMP280;50712;49.506;10.400;2023-12-20T02:39:10;97862.91;;;7.32
64394;BMP280;50712;49.506;10.400;2023-12-20T02:39:40;97867.56;;;7.32
64394;BMP280;50712;49.506;10.400;2023-12-20T02:40:11;97870.28;;;7.32
64394;BMP280;50712;49.506;10.400;2023-12-20T02:40:41;97864.53;;;7.30
64394;BMP280;50712;49.506;10.400;2023-12-20T02:41:11;97863.31;;;7.31
64394;BMP280;50712;49.506;10.400;2023-12-20T02:41:42;97867.25;;;7.30
64394;BMP280;50712;49.506;10.400;2023-12-20T02:42:12;97862.56;;;7.30
64394;BMP280;50712;49.506;10.400;2023-12-20T02:42:43;97863.31;;;7.31
64394;BMP280;50712;49.506;10.400;2023-12-20T02:43:13;97852.47;;;7.31
64394;BMP280;50712;49.506;10.400;2023-12-20T02:43:44;97853.69;;;7.30
64394;BMP280;50712;49.506;10.400;2023-12-20T02:44:15;97866.47;;;7.29
64394;BMP280;50712;49.506;10.400;2023-12-20T02:44:45;97863.75;;;7.29
64394;BMP280;50712;49.506;10.400;2023-12-20T02:45:16;97865.69;;;7.29
64394;BMP280;50712;49.506;10.400;2023-12-20T02:45:46;97863.44;;;7.27
64394;BMP280;50712;49.506;10.400;2023-12-20T02:46:16;97867.66;;;7.28
64394;BMP280;50712;49.506;10.400;2023-12-20T02:46:48;97868.09;;;7.27
64394;BMP280;50712;49.506;10.400;2023-12-20T02:47:18;97858.00;;;7.27
64394;BMP280;50712;49.506;10.400;2023-12-20T02:47:48;97865.41;;;7.27
64394;BMP280;50712;49.506;10.400;2023-12-20T02:48:19;97861.91;;;7.26
64394;BMP280;50712;49.506;10.400;2023-12-20T02:48:49;97864.63;;;7.26
64394;BMP280;50712;49.506;10.400;2023-12-20T02:49:19;97859.63;;;7.25
64394;BMP280;50712;49.506;10.400;2023-12-20T02:49:50;97871.22;;;7.25
64394;BMP280;50712;49.506;10.400;2023-12-20T02:50:20;97862.31;;;7.25
64394;BMP280;50712;49.506;10.400;2023-12-20T02:50:51;97865.03;;;7.25
64394;BMP280;50712;49.506;10.400;2023-12-20T02:51:21;97865.81;;;7.25
64394;BMP280;50712;49.506;10.400;2023-12-20T02:51:52;97869.69;;;7.24
64394;BMP280;50712;49.506;10.400;2023-12-20T02:52:23;97871.63;;;7.24
64394;BMP280;50712;49.506;10.400;2023-12-20T02:52:54;97874.34;;;7.24
64394;BMP280;50712;49.506;10.400;2023-12-20T02:53:24;97872.06;;;7.22
64394;BMP280;50712;49.506;10.400;2023-12-20T02:53:54;97860.06;;;7.23
64394;BMP280;50712;49.506;10.400;2023-12-20T02:54:25;97862.41;;;7.21
64394;BMP280;50712;49.506;10.400;2023-12-20T02:54:55;97868.59;;;7.22
64394;BMP280;50712;49.506;10.400;2023-12-20T02:55:25;97865.09;;;7.21
64394;BMP280;50712;49.506;10.400;2023-12-20T02:55:56;97865.09;;;7.21
64394;BMP280;50712;49.506;10.400;2023-12-20T02:56:26;97865.88;;;7.22
64394;BMP280;50712;49.506;10.400;2023-12-20T02:56:57;97869.34;;;7.22